sensor_id;sensor_type;location;lat;lon;timestamp;P1;durP1;ratioP1;P2;durP2;ratioP2
69323;SDS011;56470;47.350;8.718;2023-12-07T00:01:17;15.23;;;8.20;;
69323;SDS011;56470;47.350;8.718;2023-12-07T00:03:42;16.93;;;9.00;;
69323;SDS011;56470;47.350;8.718;2023-12-07T00:06:08;15.13;;;8.40;;
69323;SDS011;56470;47.350;8.718;2023-12-07T00:08:33;16.03;;;8.03;;
69323;SDS011;56470;47.350;8.718;2023-12-07T00:10:58;13.27;;;7.47;;
69323;SDS011;56470;47.350;8.718;2023-12-07T00:13:24;14.67;;;7.47;;
69323;SDS011;56470;47.350;8.718;2023-12-07T00:15:49;16.13;;;8.73;;
69323;SDS011;56470;47.350;8.718;2023-12-07T00:18:14;16.57;;;7.87;;
69323;SDS011;56470;47.350;8.718;2023-12-07T00:20:40;14.93;;;7.73;;
69323;SDS011;56470;47.350;8.718;2023-12-07T00:23:05;14.30;;;8.10;;
69323;SDS011;56470;47.350;8.718;2023-12-07T00:25:30;14.30;;;7.90;;
69323;SDS011;56470;47.350;8.718;2023-12-07T00:27:56;16.47;;;8.57;;
69323;SDS011;56470;47.350;8.718;2023-12-07T00:30:21;17.37;;;7.10;;
69323;SDS011;56470;47.350;8.718;2023-12-07T00:32:46;14.30;;;7.68;;
69323;SDS011;56470;47.350;8.718;2023-12-07T00:35:12;16.33;;;8.13;;
69323;SDS011;56470;47.350;8.718;2023-12-07T00:37:38;15.27;;;7.88;;
69323;SDS011;56470;47.350;8.718;2023-12-07T00:40:04;14.33;;;6.40;;
69323;SDS011;56470;47.350;8.718;2023-12-07T00:42:29;13.65;;;6.47;;
69323;SDS011;56470;47.350;8.718;2023-12-07T00:44:55;14.27;;;7.87;;
69323;SDS011;56470;47.350;8.718;2023-12-07T00:47:21;12.87;;;7.00;;
69323;SDS011;56470;47.350;8.718;2023-12-07T00:49:49;13.40;;;6.95;;
69323;SDS011;56470;47.350;8.718;2023-12-07T00:52:14;14.32;;;7.47;;
69323;SDS011;56470;47.350;8.718;2023-12-07T00:54:39;14.03;;;6.93;;
69323;SDS011;56470;47.350;8.718;2023-12-07T00:57:05;17.13;;;7.20;;
69323;SDS011;56470;47.350;8.718;2023-12-07T00:59:31;15.80;;;8.45;;
69323;SDS011;56470;47.350;8.718;2023-12-07T01:01:58;16.23;;;7.63;;
69323;SDS011;56470;47.350;8.718;2023-12-07T01:04:30;13.13;;;7.10;;
69323;SDS011;56470;47.350;8.718;2023-12-07T01:06:56;14.00;;;7.15;;
69323;SDS011;56470;47.350;8.718;2023-12-07T01:09:21;13.53;;;7.33;;
69323;SDS011;56470;47.350;8.718;2023-12-07T01:11:48;13.30;;;6.93;;
69323;SDS011;56470;47.350;8.718;2023-12-07T01:14:14;14.45;;;6.95;;
69323;SDS011;56470;47.350;8.718;2023-12-07T01:16:39;14.83;;;7.80;;
69323;SDS011;56470;47.350;8.718;2023-12-07T01:19:05;12.43;;;6.70;;
69323;SDS011;56470;47.350;8.718;2023-12-07T01:21:31;12.07;;;6.38;;
69323;SDS011;56470;47.350;8.718;2023-12-07T01:23:57;14.87;;;7.57;;
69323;SDS011;56470;47.350;8.718;2023-12-07T01:26:23;13.25;;;6.80;;
69323;SDS011;56470;47.350;8.718;2023-12-07T01:28:48;12.70;;;7.15;;
69323;SDS011;56470;47.350;8.718;2023-12-07T01:31:14;12.43;;;6.60;;
69323;SDS011;56470;47.350;8.718;2023-12-07T01:33:39;12.73;;;6.60;;
69323;SDS011;56470;47.350;8.718;2023-12-07T01:36:04;13.33;;;6.07;;
69323;SDS011;56470;47.350;8.718;2023-12-07T01:38:30;12.30;;;6.83;;
69323;SDS011;56470;47.350;8.718;2023-12-07T01:40:55;11.95;;;6.30;;
69323;SDS011;56470;47.350;8.718;2023-12-07T01:43:22;11.47;;;5.93;;
69323;SDS011;56470;47.350;8.718;2023-12-07T01:45:48;12.25;;;6.65;;
69323;SDS011;56470;47.350;8.718;2023-12-07T01:48:15;12.90;;;6.50;;
69323;SDS011;56470;47.350;8.718;2023-12-07T01:50:41;12.97;;;6.33;;
69323;SDS011;56470;47.350;8.718;2023-12-07T01:53:06;13.77;;;6.70;;
69323;SDS011;56470;47.350;8.718;2023-12-07T01:55:32;11.60;;;6.57;;
69323;SDS011;56470;47.350;8.718;2023-12-07T01:57:58;11.13;;;6.40;;
69323;SDS011;56470;47.350;8.718;2023-12-07T02:00:25;13.13;;;6.50;;
69323;SDS011;56470;47.350;8.718;2023-12-07T02:02:52;11.90;;;5.70;;
69323;SDS011;56470;47.350;8.718;2023-12-07T02:05:17;15.75;;;6.72;;
69323;SDS011;56470;47.350;8.718;2023-12-07T02:07:43;12.80;;;6.33;;
69323;SDS011;56470;47.350;8.718;2023-12-07T02:10:09;14.90;;;6.57;;
69323;SDS011;56470;47.350;8.718;2023-12-07T02:12:35;12.13;;;6.30;;
69323;SDS011;56470;47.350;8.718;2023-12-07T02:15:02;16.50;;;8.00;;
69323;SDS011;56470;47.350;8.718;2023-12-07T02:22:25;13.15;;;6.82;;
69323;SDS011;56470;47.350;8.718;2023-12-07T02:27:41;17.13;;;8.23;;
69323;SDS011;56470;47.350;8.718;2023-12-07T02:30:08;14.15;;;7.40;;
69323;SDS011;56470;47.350;8.718;2023-12-07T02:32:38;14.20;;;8.15;;
69323;SDS011;56470;47.350;8.718;2023-12-07T02:35:06;12.93;;;7.25;;
69323;SDS011;56470;47.350;8.718;2023-12-07T02:37:33;17.15;;;7.90;;
69323;SDS011;56470;47.350;8.718;2023-12-07T02:40:05;13.47;;;6.87;;
69323;SDS011;56470;47.350;8.718;2023-12-07T02:42:35;15.38;;;8.85;;
69323;SDS011;56470;47.350;8.718;2023-12-07T02:45:01;13.93;;;7.45;;
69323;SDS011;56470;47.350;8.718;2023-12-07T02:47:28;14.88;;;7.63;;
69323;SDS011;56470;47.350;8.718;2023-12-07T02:49:53;14.70;;;7.17;;
69323;SDS011;56470;47.350;8.718;2023-12-07T02:52:18;16.03;;;7.37;;
69323;SDS011;56470;47.350;8.718;2023-12-07T02:54:44;12.27;;;6.63;;
69323;SDS011;56470;47.350;8.718;2023-12-07T02:57:09;13.63;;;7.05;;
69323;SDS011;56470;47.350;8.718;2023-12-07T02:59:35;14.27;;;7.53;;
69323;SDS011;56470;47.350;8.718;2023-12-07T03:02:00;13.07;;;7.23;;
69323;SDS011;56470;47.350;8.718;2023-12-07T03:04:25;12.53;;;6.93;;
69323;SDS011;56470;47.350;8.718;2023-12-07T03:06:50;14.10;;;7.50;;
69323;SDS011;56470;47.350;8.718;2023-12-07T03:09:16;15.07;;;7.77;;
69323;SDS011;56470;47.350;8.718;2023-12-07T03:11:41;13.57;;;6.80;;
69323;SDS011;56470;47.350;8.718;2023-12-07T03:14:07;13.53;;;7.03;;
69323;SDS011;56470;47.350;8.718;2023-12-07T03:16:32;15.03;;;8.17;;
69323;SDS011;56470;47.350;8.718;2023-12-07T03:18:58;13.30;;;7.80;;
69323;SDS011;56470;47.350;8.718;2023-12-07T03:21:26;14.93;;;8.07;;
69323;SDS011;56470;47.350;8.718;2023-12-07T03:23:51;14.10;;;7.50;;
69323;SDS011;56470;47.350;8.718;2023-12-07T03:26:16;15.50;;;7.33;;
69323;SDS011;56470;47.350;8.718;2023-12-07T03:28:42;13.53;;;7.30;;
69323;SDS011;56470;47.350;8.718;2023-12-07T03:31:07;14.17;;;7.20;;
69323;SDS011;56470;47.350;8.718;2023-12-07T03:33:32;11.80;;;6.80;;
69323;SDS011;56470;47.350;8.718;2023-12-07T03:35:58;12.75;;;6.82;;
69323;SDS011;56470;47.350;8.718;2023-12-07T03:38:23;12.47;;;6.10;;
69323;SDS011;56470;47.350;8.718;2023-12-07T03:40:48;12.30;;;7.10;;
69323;SDS011;56470;47.350;8.718;2023-12-07T03:43:14;12.50;;;6.78;;
69323;SDS011;56470;47.350;8.718;2023-12-07T03:45:40;13.18;;;7.05;;
69323;SDS011;56470;47.350;8.718;2023-12-07T03:48:06;14.23;;;7.87;;
69323;SDS011;56470;47.350;8.718;2023-12-07T03:50:31;11.83;;;6.80;;
69323;SDS011;56470;47.350;8.718;2023-12-07T03:52:57;12.20;;;6.17;;
69323;SDS011;56470;47.350;8.718;2023-12-07T03:55:22;12.17;;;6.77;;
69323;SDS011;56470;47.350;8.718;2023-12-07T03:57:47;13.43;;;7.80;;
69323;SDS011;56470;47.350;8.718;2023-12-07T04:00:13;11.40;;;6.33;;
69323;SDS011;56470;47.350;8.718;2023-12-07T04:02:38;13.63;;;7.37;;
69323;SDS011;56470;47.350;8.718;2023-12-07T04:05:04;13.57;;;7.17;;
69323;SDS011;56470;47.350;8.718;2023-12-07T04:07:29;11.85;;;6.13;;
69323;SDS011;56470;47.350;8.718;2023-12-07T04:09:55;13.70;;;7.73;;
69323;SDS011;56470;47.350;8.718;2023-12-07T04:12:22;12.90;;;6.60;;
69323;SDS011;56470;47.350;8.718;2023-12-07T04:14:48;13.60;;;6.75;;
69323;SDS011;56470;47.350;8.718;2023-12-07T04:17:13;12.73;;;6.60;;
69323;SDS011;56470;47.350;8.718;2023-12-07T04:19:38;15.00;;;8.07;;
69323;SDS011;56470;47.350;8.718;2023-12-07T04:22:04;16.20;;;8.53;;
69323;SDS011;56470;47.350;8.718;2023-12-07T04:24:29;16.97;;;8.17;;
69323;SDS011;56470;47.350;8.718;2023-12-07T04:26:54;16.05;;;7.72;;
69323;SDS011;56470;47.350;8.718;2023-12-07T04:29:20;22.17;;;8.70;;
69323;SDS011;56470;47.350;8.718;2023-12-07T04:31:45;16.20;;;7.93;;
69323;SDS011;56470;47.350;8.718;2023-12-07T04:34:11;24.10;;;8.70;;
69323;SDS011;56470;47.350;8.718;2023-12-07T04:36:36;34.97;;;7.97;;
69323;SDS011;56470;47.350;8.718;2023-12-07T04:39:01;17.73;;;8.70;;
69323;SDS011;56470;47.350;8.718;2023-12-07T04:41:27;20.37;;;8.40;;
69323;SDS011;56470;47.350;8.718;2023-12-07T04:43:52;56.17;;;8.50;;
69323;SDS011;56470;47.350;8.718;2023-12-07T04:46:17;40.73;;;7.80;;
69323;SDS011;56470;47.350;8.718;2023-12-07T04:48:43;37.10;;;8.73;;
69323;SDS011;56470;47.350;8.718;2023-12-07T04:51:08;93.77;;;9.47;;
69323;SDS011;56470;47.350;8.718;2023-12-07T04:53:33;38.05;;;8.25;;
69323;SDS011;56470;47.350;8.718;2023-12-07T04:55:59;37.53;;;6.93;;
69323;SDS011;56470;47.350;8.718;2023-12-07T04:58:24;44.30;;;7.13;;
69323;SDS011;56470;47.350;8.718;2023-12-07T05:00:49;31.40;;;7.40;;
69323;SDS011;56470;47.350;8.718;2023-12-07T05:03:15;29.10;;;6.43;;
69323;SDS011;56470;47.350;8.718;2023-12-07T05:05:40;30.33;;;6.87;;
69323;SDS011;56470;47.350;8.718;2023-12-07T05:08:05;42.00;;;8.43;;
69323;SDS011;56470;47.350;8.718;2023-12-07T05:10:31;20.87;;;6.93;;
69323;SDS011;56470;47.350;8.718;2023-12-07T05:12:56;12.10;;;5.50;;
69323;SDS011;56470;47.350;8.718;2023-12-07T05:15:22;11.63;;;5.07;;
69323;SDS011;56470;47.350;8.718;2023-12-07T05:17:47;14.75;;;5.88;;
69323;SDS011;56470;47.350;8.718;2023-12-07T05:20:12;23.50;;;7.37;;
69323;SDS011;56470;47.350;8.718;2023-12-07T05:22:38;14.97;;;7.00;;
69323;SDS011;56470;47.350;8.718;2023-12-07T05:25:03;14.53;;;7.07;;
69323;SDS011;56470;47.350;8.718;2023-12-07T05:27:30;14.93;;;7.05;;
69323;SDS011;56470;47.350;8.718;2023-12-07T05:29:55;13.63;;;6.25;;
69323;SDS011;56470;47.350;8.718;2023-12-07T05:32:20;12.37;;;6.00;;
69323;SDS011;56470;47.350;8.718;2023-12-07T05:34:46;13.27;;;6.47;;
69323;SDS011;56470;47.350;8.718;2023-12-07T05:37:11;14.43;;;6.43;;
69323;SDS011;56470;47.350;8.718;2023-12-07T05:39:36;13.50;;;6.40;;
69323;SDS011;56470;47.350;8.718;2023-12-07T05:42:02;14.20;;;6.90;;
69323;SDS011;56470;47.350;8.718;2023-12-07T05:44:29;15.68;;;6.85;;
69323;SDS011;56470;47.350;8.718;2023-12-07T05:46:54;15.27;;;6.88;;
69323;SDS011;56470;47.350;8.718;2023-12-07T05:49:20;14.07;;;6.47;;
69323;SDS011;56470;47.350;8.718;2023-12-07T05:51:47;11.90;;;6.15;;
69323;SDS011;56470;47.350;8.718;2023-12-07T05:54:13;17.08;;;7.32;;
69323;SDS011;56470;47.350;8.718;2023-12-07T05:56:39;17.03;;;7.13;;
69323;SDS011;56470;47.350;8.718;2023-12-07T05:59:05;21.20;;;6.85;;
69323;SDS011;56470;47.350;8.718;2023-12-07T06:01:31;15.27;;;6.67;;
69323;SDS011;56470;47.350;8.718;2023-12-07T06:03:57;19.90;;;7.18;;
69323;SDS011;56470;47.350;8.718;2023-12-07T06:06:23;14.57;;;6.78;;
69323;SDS011;56470;47.350;8.718;2023-12-07T06:08:48;12.87;;;6.40;;
69323;SDS011;56470;47.350;8.718;2023-12-07T06:11:14;14.50;;;6.27;;
69323;SDS011;56470;47.350;8.718;2023-12-07T06:13:40;16.63;;;6.90;;
69323;SDS011;56470;47.350;8.718;2023-12-07T06:16:06;17.60;;;7.97;;
69323;SDS011;56470;47.350;8.718;2023-12-07T06:18:31;14.97;;;6.70;;
69323;SDS011;56470;47.350;8.718;2023-12-07T06:20:57;21.00;;;7.90;;
69323;SDS011;56470;47.350;8.718;2023-12-07T06:23:22;20.70;;;7.30;;
69323;SDS011;56470;47.350;8.718;2023-12-07T06:25:47;26.47;;;7.90;;
69323;SDS011;56470;47.350;8.718;2023-12-07T06:28:13;19.67;;;6.67;;
69323;SDS011;56470;47.350;8.718;2023-12-07T06:30:41;17.15;;;6.57;;
69323;SDS011;56470;47.350;8.718;2023-12-07T06:33:07;18.67;;;7.17;;
69323;SDS011;56470;47.350;8.718;2023-12-07T06:35:32;19.30;;;6.25;;
69323;SDS011;56470;47.350;8.718;2023-12-07T06:37:58;25.23;;;6.30;;
69323;SDS011;56470;47.350;8.718;2023-12-07T06:40:23;13.20;;;5.67;;
69323;SDS011;56470;47.350;8.718;2023-12-07T06:42:48;24.20;;;7.17;;
69323;SDS011;56470;47.350;8.718;2023-12-07T06:45:14;41.13;;;6.40;;
69323;SDS011;56470;47.350;8.718;2023-12-07T06:47:42;14.07;;;6.63;;
69323;SDS011;56470;47.350;8.718;2023-12-07T06:50:08;16.53;;;5.63;;
69323;SDS011;56470;47.350;8.718;2023-12-07T06:52:39;34.25;;;7.07;;
69323;SDS011;56470;47.350;8.718;2023-12-07T06:55:05;15.75;;;6.50;;
69323;SDS011;56470;47.350;8.718;2023-12-07T06:57:31;18.80;;;7.15;;
69323;SDS011;56470;47.350;8.718;2023-12-07T06:59:57;26.02;;;6.90;;
69323;SDS011;56470;47.350;8.718;2023-12-07T07:02:22;40.00;;;7.53;;
69323;SDS011;56470;47.350;8.718;2023-12-07T07:04:48;15.07;;;6.77;;
69323;SDS011;56470;47.350;8.718;2023-12-07T07:07:14;31.60;;;6.82;;
69323;SDS011;56470;47.350;8.718;2023-12-07T07:09:42;31.43;;;6.83;;
69323;SDS011;56470;47.350;8.718;2023-12-07T07:12:08;17.25;;;6.45;;
69323;SDS011;56470;47.350;8.718;2023-12-07T07:14:33;26.87;;;7.40;;
69323;SDS011;56470;47.350;8.718;2023-12-07T07:17:01;34.65;;;7.55;;
69323;SDS011;56470;47.350;8.718;2023-12-07T07:19:26;26.67;;;7.10;;
69323;SDS011;56470;47.350;8.718;2023-12-07T07:21:54;32.23;;;7.50;;
69323;SDS011;56470;47.350;8.718;2023-12-07T07:24:19;26.02;;;7.13;;
69323;SDS011;56470;47.350;8.718;2023-12-07T07:26:45;16.70;;;6.13;;
69323;SDS011;56470;47.350;8.718;2023-12-07T07:29:13;23.95;;;7.57;;
69323;SDS011;56470;47.350;8.718;2023-12-07T07:31:38;22.83;;;6.60;;
69323;SDS011;56470;47.350;8.718;2023-12-07T07:34:04;36.88;;;7.78;;
69323;SDS011;56470;47.350;8.718;2023-12-07T07:36:32;17.73;;;6.97;;
69323;SDS011;56470;47.350;8.718;2023-12-07T07:38:57;27.00;;;7.43;;
69323;SDS011;56470;47.350;8.718;2023-12-07T07:41:22;18.77;;;7.20;;
69323;SDS011;56470;47.350;8.718;2023-12-07T07:43:48;18.90;;;7.03;;
69323;SDS011;56470;47.350;8.718;2023-12-07T07:46:16;21.43;;;6.00;;
69323;SDS011;56470;47.350;8.718;2023-12-07T07:48:41;23.70;;;7.40;;
69323;SDS011;56470;47.350;8.718;2023-12-07T07:51:06;26.03;;;7.10;;
69323;SDS011;56470;47.350;8.718;2023-12-07T07:53:39;30.80;;;7.30;;
69323;SDS011;56470;47.350;8.718;2023-12-07T07:56:05;28.15;;;7.20;;
69323;SDS011;56470;47.350;8.718;2023-12-07T07:58:31;15.98;;;7.15;;
69323;SDS011;56470;47.350;8.718;2023-12-07T08:00:56;15.87;;;6.73;;
69323;SDS011;56470;47.350;8.718;2023-12-07T08:03:21;13.93;;;6.53;;
69323;SDS011;56470;47.350;8.718;2023-12-07T08:05:47;13.57;;;6.67;;
69323;SDS011;56470;47.350;8.718;2023-12-07T08:08:12;16.10;;;6.80;;
69323;SDS011;56470;47.350;8.718;2023-12-07T08:10:37;18.53;;;7.53;;
69323;SDS011;56470;47.350;8.718;2023-12-07T08:13:04;13.23;;;6.45;;
69323;SDS011;56470;47.350;8.718;2023-12-07T08:15:29;12.40;;;6.47;;
69323;SDS011;56470;47.350;8.718;2023-12-07T08:17:55;11.20;;;5.90;;
69323;SDS011;56470;47.350;8.718;2023-12-07T08:20:21;15.55;;;6.28;;
69323;SDS011;56470;47.350;8.718;2023-12-07T08:22:46;12.53;;;5.67;;
69323;SDS011;56470;47.350;8.718;2023-12-07T08:25:11;13.43;;;6.70;;
69323;SDS011;56470;47.350;8.718;2023-12-07T08:27:37;19.05;;;6.82;;
69323;SDS011;56470;47.350;8.718;2023-12-07T08:30:04;21.67;;;6.60;;
69323;SDS011;56470;47.350;8.718;2023-12-07T08:32:30;15.20;;;6.50;;
69323;SDS011;56470;47.350;8.718;2023-12-07T08:34:56;23.02;;;6.85;;
69323;SDS011;56470;47.350;8.718;2023-12-07T08:37:21;17.63;;;7.03;;
69323;SDS011;56470;47.350;8.718;2023-12-07T08:39:47;21.30;;;8.07;;
69323;SDS011;56470;47.350;8.718;2023-12-07T08:42:12;14.17;;;5.93;;
69323;SDS011;56470;47.350;8.718;2023-12-07T08:44:37;12.40;;;6.40;;
69323;SDS011;56470;47.350;8.718;2023-12-07T08:47:03;16.85;;;5.93;;
69323;SDS011;56470;47.350;8.718;2023-12-07T08:49:30;13.18;;;6.28;;
69323;SDS011;56470;47.350;8.718;2023-12-07T08:51:55;13.83;;;6.00;;
69323;SDS011;56470;47.350;8.718;2023-12-07T08:54:21;11.23;;;5.55;;
69323;SDS011;56470;47.350;8.718;2023-12-07T08:56:47;11.60;;;5.23;;
69323;SDS011;56470;47.350;8.718;2023-12-07T08:59:12;14.60;;;6.50;;
69323;SDS011;56470;47.350;8.718;2023-12-07T09:01:38;13.90;;;5.55;;
69323;SDS011;56470;47.350;8.718;2023-12-07T09:04:03;17.77;;;5.80;;
69323;SDS011;56470;47.350;8.718;2023-12-07T09:06:29;15.47;;;6.70;;
69323;SDS011;56470;47.350;8.718;2023-12-07T09:08:54;12.52;;;5.93;;
69323;SDS011;56470;47.350;8.718;2023-12-07T09:11:20;12.00;;;5.73;;
69323;SDS011;56470;47.350;8.718;2023-12-07T09:13:46;20.38;;;6.30;;
69323;SDS011;56470;47.350;8.718;2023-12-07T09:16:11;12.50;;;6.20;;
69323;SDS011;56470;47.350;8.718;2023-12-07T09:18:36;11.17;;;5.57;;
69323;SDS011;56470;47.350;8.718;2023-12-07T09:21:02;9.93;;;4.93;;
69323;SDS011;56470;47.350;8.718;2023-12-07T09:23:28;11.25;;;5.15;;
69323;SDS011;56470;47.350;8.718;2023-12-07T09:25:53;11.82;;;5.45;;
69323;SDS011;56470;47.350;8.718;2023-12-07T09:28:21;12.27;;;6.30;;
69323;SDS011;56470;47.350;8.718;2023-12-07T09:30:46;10.43;;;5.20;;
69323;SDS011;56470;47.350;8.718;2023-12-07T09:33:12;14.07;;;6.60;;
69323;SDS011;56470;47.350;8.718;2023-12-07T09:35:38;11.80;;;5.07;;
69323;SDS011;56470;47.350;8.718;2023-12-07T09:38:04;12.80;;;6.07;;
69323;SDS011;56470;47.350;8.718;2023-12-07T09:40:29;14.27;;;5.97;;
69323;SDS011;56470;47.350;8.718;2023-12-07T09:42:55;10.65;;;5.22;;
69323;SDS011;56470;47.350;8.718;2023-12-07T09:45:21;14.73;;;6.53;;
69323;SDS011;56470;47.350;8.718;2023-12-07T09:47:47;13.60;;;5.97;;
69323;SDS011;56470;47.350;8.718;2023-12-07T09:50:15;9.13;;;4.70;;
69323;SDS011;56470;47.350;8.718;2023-12-07T09:52:42;10.68;;;5.47;;
69323;SDS011;56470;47.350;8.718;2023-12-07T09:55:08;10.23;;;4.60;;
69323;SDS011;56470;47.350;8.718;2023-12-07T09:57:34;11.30;;;5.33;;
69323;SDS011;56470;47.350;8.718;2023-12-07T10:00:02;13.90;;;5.88;;
69323;SDS011;56470;47.350;8.718;2023-12-07T10:02:28;12.32;;;5.00;;
69323;SDS011;56470;47.350;8.718;2023-12-07T10:05:03;12.27;;;6.03;;
69323;SDS011;56470;47.350;8.718;2023-12-07T10:07:33;12.57;;;6.17;;
69323;SDS011;56470;47.350;8.718;2023-12-07T10:10:03;10.43;;;5.53;;
69323;SDS011;56470;47.350;8.718;2023-12-07T10:12:32;11.13;;;5.88;;
69323;SDS011;56470;47.350;8.718;2023-12-07T10:15:00;11.70;;;5.40;;
69323;SDS011;56470;47.350;8.718;2023-12-07T10:17:45;13.68;;;6.10;;
69323;SDS011;56470;47.350;8.718;2023-12-07T10:20:16;12.97;;;5.53;;
69323;SDS011;56470;47.350;8.718;2023-12-07T10:22:43;12.63;;;6.03;;
69323;SDS011;56470;47.350;8.718;2023-12-07T10:25:10;13.13;;;6.38;;
69323;SDS011;56470;47.350;8.718;2023-12-07T10:27:36;13.65;;;6.35;;
69323;SDS011;56470;47.350;8.718;2023-12-07T10:30:04;12.30;;;5.82;;
69323;SDS011;56470;47.350;8.718;2023-12-07T10:32:31;12.10;;;5.43;;
69323;SDS011;56470;47.350;8.718;2023-12-07T10:35:00;11.63;;;5.70;;
69323;SDS011;56470;47.350;8.718;2023-12-07T10:37:26;11.93;;;5.37;;
69323;SDS011;56470;47.350;8.718;2023-12-07T10:39:51;10.18;;;5.75;;
69323;SDS011;56470;47.350;8.718;2023-12-07T10:42:17;12.60;;;5.87;;
69323;SDS011;56470;47.350;8.718;2023-12-07T10:44:47;13.27;;;6.72;;
69323;SDS011;56470;47.350;8.718;2023-12-07T10:47:15;13.80;;;6.67;;
69323;SDS011;56470;47.350;8.718;2023-12-07T10:49:43;16.63;;;8.18;;
69323;SDS011;56470;47.350;8.718;2023-12-07T10:52:12;14.38;;;7.57;;
69323;SDS011;56470;47.350;8.718;2023-12-07T10:54:43;13.98;;;6.63;;
69323;SDS011;56470;47.350;8.718;2023-12-07T10:57:11;11.23;;;6.40;;
69323;SDS011;56470;47.350;8.718;2023-12-07T10:59:39;13.20;;;6.00;;
69323;SDS011;56470;47.350;8.718;2023-12-07T11:02:07;12.07;;;5.90;;
69323;SDS011;56470;47.350;8.718;2023-12-07T11:04:35;12.43;;;6.10;;
69323;SDS011;56470;47.350;8.718;2023-12-07T11:07:04;13.57;;;6.45;;
69323;SDS011;56470;47.350;8.718;2023-12-07T11:09:35;11.38;;;5.47;;
69323;SDS011;56470;47.350;8.718;2023-12-07T11:12:11;14.50;;;6.03;;
69323;SDS011;56470;47.350;8.718;2023-12-07T11:14:59;11.63;;;6.15;;
69323;SDS011;56470;47.350;8.718;2023-12-07T11:17:26;14.23;;;6.38;;
69323;SDS011;56470;47.350;8.718;2023-12-07T11:19:51;13.27;;;6.45;;
69323;SDS011;56470;47.350;8.718;2023-12-07T11:22:17;14.47;;;7.20;;
69323;SDS011;56470;47.350;8.718;2023-12-07T11:24:52;13.88;;;6.47;;
69323;SDS011;56470;47.350;8.718;2023-12-07T11:27:19;13.63;;;6.53;;
69323;SDS011;56470;47.350;8.718;2023-12-07T11:29:45;10.88;;;5.68;;
69323;SDS011;56470;47.350;8.718;2023-12-07T11:32:13;11.77;;;6.35;;
69323;SDS011;56470;47.350;8.718;2023-12-07T11:34:39;13.40;;;6.73;;
69323;SDS011;56470;47.350;8.718;2023-12-07T11:37:06;15.90;;;6.97;;
69323;SDS011;56470;47.350;8.718;2023-12-07T11:39:39;15.70;;;7.25;;
69323;SDS011;56470;47.350;8.718;2023-12-07T11:42:12;13.83;;;6.87;;
69323;SDS011;56470;47.350;8.718;2023-12-07T11:44:40;12.57;;;6.45;;
69323;SDS011;56470;47.350;8.718;2023-12-07T11:47:07;13.05;;;6.28;;
69323;SDS011;56470;47.350;8.718;2023-12-07T11:49:34;12.57;;;6.53;;
69323;SDS011;56470;47.350;8.718;2023-12-07T11:51:59;13.30;;;6.67;;
69323;SDS011;56470;47.350;8.718;2023-12-07T11:54:25;12.10;;;6.20;;
69323;SDS011;56470;47.350;8.718;2023-12-07T11:56:54;11.90;;;6.07;;
69323;SDS011;56470;47.350;8.718;2023-12-07T11:59:20;12.73;;;6.10;;
69323;SDS011;56470;47.350;8.718;2023-12-07T12:01:46;14.67;;;6.43;;
69323;SDS011;56470;47.350;8.718;2023-12-07T12:04:13;11.93;;;6.57;;
69323;SDS011;56470;47.350;8.718;2023-12-07T12:06:39;13.93;;;6.60;;
69323;SDS011;56470;47.350;8.718;2023-12-07T12:09:05;14.90;;;7.50;;
69323;SDS011;56470;47.350;8.718;2023-12-07T12:11:30;13.27;;;7.60;;
69323;SDS011;56470;47.350;8.718;2023-12-07T12:13:55;14.87;;;7.03;;
69323;SDS011;56470;47.350;8.718;2023-12-07T12:16:22;13.60;;;6.78;;
69323;SDS011;56470;47.350;8.718;2023-12-07T12:18:48;11.57;;;5.88;;
69323;SDS011;56470;47.350;8.718;2023-12-07T12:21:13;15.27;;;6.53;;
69323;SDS011;56470;47.350;8.718;2023-12-07T12:23:39;13.82;;;6.55;;
69323;SDS011;56470;47.350;8.718;2023-12-07T12:26:05;15.03;;;6.57;;
69323;SDS011;56470;47.350;8.718;2023-12-07T12:28:32;11.95;;;5.75;;
69323;SDS011;56470;47.350;8.718;2023-12-07T12:30:57;14.03;;;6.57;;
69323;SDS011;56470;47.350;8.718;2023-12-07T12:33:23;13.18;;;6.22;;
69323;SDS011;56470;47.350;8.718;2023-12-07T12:36:05;13.63;;;6.87;;
69323;SDS011;56470;47.350;8.718;2023-12-07T12:38:32;13.30;;;6.72;;
69323;SDS011;56470;47.350;8.718;2023-12-07T12:40:58;13.68;;;6.57;;
69323;SDS011;56470;47.350;8.718;2023-12-07T12:43:23;12.60;;;6.10;;
69323;SDS011;56470;47.350;8.718;2023-12-07T12:45:49;14.40;;;6.27;;
69323;SDS011;56470;47.350;8.718;2023-12-07T12:48:14;14.05;;;6.80;;
69323;SDS011;56470;47.350;8.718;2023-12-07T12:50:40;12.73;;;6.07;;
69323;SDS011;56470;47.350;8.718;2023-12-07T12:53:07;12.50;;;6.78;;
69323;SDS011;56470;47.350;8.718;2023-12-07T12:55:41;11.53;;;6.30;;
69323;SDS011;56470;47.350;8.718;2023-12-07T12:58:07;13.95;;;6.90;;
69323;SDS011;56470;47.350;8.718;2023-12-07T13:00:35;14.07;;;7.43;;
69323;SDS011;56470;47.350;8.718;2023-12-07T13:03:03;13.40;;;6.93;;
69323;SDS011;56470;47.350;8.718;2023-12-07T13:05:30;11.40;;;6.68;;
69323;SDS011;56470;47.350;8.718;2023-12-07T13:07:57;13.73;;;6.17;;
69323;SDS011;56470;47.350;8.718;2023-12-07T13:10:23;13.40;;;7.25;;
69323;SDS011;56470;47.350;8.718;2023-12-07T13:12:49;12.17;;;6.57;;
69323;SDS011;56470;47.350;8.718;2023-12-07T13:15:14;12.57;;;6.83;;
69323;SDS011;56470;47.350;8.718;2023-12-07T13:17:40;11.88;;;6.07;;
69323;SDS011;56470;47.350;8.718;2023-12-07T13:20:06;12.57;;;6.80;;
69323;SDS011;56470;47.350;8.718;2023-12-07T13:22:36;12.52;;;6.50;;
69323;SDS011;56470;47.350;8.718;2023-12-07T13:25:02;13.07;;;7.25;;
69323;SDS011;56470;47.350;8.718;2023-12-07T13:27:28;13.73;;;6.72;;
69323;SDS011;56470;47.350;8.718;2023-12-07T13:29:53;13.50;;;6.63;;
69323;SDS011;56470;47.350;8.718;2023-12-07T13:32:19;13.47;;;6.67;;
69323;SDS011;56470;47.350;8.718;2023-12-07T13:34:44;12.43;;;6.77;;
69323;SDS011;56470;47.350;8.718;2023-12-07T13:37:09;14.80;;;7.03;;
69323;SDS011;56470;47.350;8.718;2023-12-07T13:39:34;13.03;;;6.90;;
69323;SDS011;56470;47.350;8.718;2023-12-07T13:42:00;13.03;;;7.27;;
69323;SDS011;56470;47.350;8.718;2023-12-07T13:44:25;12.43;;;6.30;;
69323;SDS011;56470;47.350;8.718;2023-12-07T13:46:50;13.33;;;6.83;;
69323;SDS011;56470;47.350;8.718;2023-12-07T13:49:21;16.63;;;7.47;;
69323;SDS011;56470;47.350;8.718;2023-12-07T13:51:47;13.60;;;6.97;;
69323;SDS011;56470;47.350;8.718;2023-12-07T13:54:12;15.73;;;7.60;;
69323;SDS011;56470;47.350;8.718;2023-12-07T13:56:37;13.20;;;6.82;;
69323;SDS011;56470;47.350;8.718;2023-12-07T13:59:03;13.43;;;6.87;;
69323;SDS011;56470;47.350;8.718;2023-12-07T14:01:28;16.03;;;7.80;;
69323;SDS011;56470;47.350;8.718;2023-12-07T14:03:56;13.90;;;6.43;;
69323;SDS011;56470;47.350;8.718;2023-12-07T14:06:22;13.33;;;6.90;;
69323;SDS011;56470;47.350;8.718;2023-12-07T14:08:51;15.68;;;7.78;;
69323;SDS011;56470;47.350;8.718;2023-12-07T14:11:17;14.43;;;7.50;;
69323;SDS011;56470;47.350;8.718;2023-12-07T14:13:43;14.15;;;7.82;;
69323;SDS011;56470;47.350;8.718;2023-12-07T14:16:11;16.80;;;8.57;;
69323;SDS011;56470;47.350;8.718;2023-12-07T14:18:36;17.73;;;6.43;;
69323;SDS011;56470;47.350;8.718;2023-12-07T14:21:01;11.23;;;6.40;;
69323;SDS011;56470;47.350;8.718;2023-12-07T14:23:27;14.27;;;6.97;;
69323;SDS011;56470;47.350;8.718;2023-12-07T14:25:53;17.93;;;7.87;;
69323;SDS011;56470;47.350;8.718;2023-12-07T14:28:23;16.83;;;8.02;;
69323;SDS011;56470;47.350;8.718;2023-12-07T14:30:48;15.43;;;6.87;;
69323;SDS011;56470;47.350;8.718;2023-12-07T14:33:14;14.20;;;7.03;;
69323;SDS011;56470;47.350;8.718;2023-12-07T14:35:39;15.35;;;7.60;;
69323;SDS011;56470;47.350;8.718;2023-12-07T14:38:04;14.77;;;6.87;;